WetterOnline ( https://www.wetteronline.de )

Wetter aktuell Innsbruck

Aktuelles Wetter: Innsbruck Flughafen (584m)

6-stündlich | Neueste Meldungen
Ortszeit Temperatur Wetter
So, 12.07. 14:00 21.7° C fast wolkenlos
So, 12.07. 8:00 13.4° C bewölkt
So, 12.07. 2:00 13.2° C wolkig
Sa, 11.07. 20:00 15.4° C leichte Schauer
Sa, 11.07. 14:00 17.9° C bedeckt
Sa, 11.07. 8:00 15.5° C leichter Regen
Sa, 11.07. 2:00 16.5° C wolkig
Fr, 10.07. 20:00 19.1° C Schauer
Ortszeit Temperatur Wetter
So, 12.07. 18:00 22.1° C fast wolkenlos
So, 12.07. 17:50 22° C leicht bewölkt
So, 12.07. 17:20 22° C leicht bewölkt
So, 12.07. 17:00 22.4° C leicht bewölkt
So, 12.07. 16:50 22° C leicht bewölkt
So, 12.07. 16:20 23° C leicht bewölkt
So, 12.07. 16:00 22.5° C leicht bewölkt
So, 12.07. 15:20 23° C leicht bewölkt
So, 12.07. 15:00 22.4° C leicht bewölkt
So, 12.07. 14:20 22° C leicht bewölkt
Ortszeit Relative Feuchte Sichtweite
So, 12.07. 14:00 45% 45 km
So, 12.07. 8:00 89% 40 km
So, 12.07. 2:00 92% 27 km
Sa, 11.07. 20:00 80% 40 km
Sa, 11.07. 14:00 75% 50 km
Sa, 11.07. 8:00 90% 11 km
Sa, 11.07. 2:00 94% 20 km
Fr, 10.07. 20:00 74% 16 km
Ortszeit Relative Feuchte Sichtweite
So, 12.07. 18:00 46% 45 km
So, 12.07. 17:50 46% >10 km
So, 12.07. 17:20 46% >10 km
So, 12.07. 17:00 43% 55 km
So, 12.07. 16:50 43% >10 km
So, 12.07. 16:20 41% >10 km
So, 12.07. 16:00 41% 65 km
So, 12.07. 15:20 38% >10 km
So, 12.07. 15:00 37% 65 km
So, 12.07. 14:20 41% >10 km
Ortszeit Niederschlagsmenge Niederschlagsart
So, 12.07. 14:00 keine Meldung -
So, 12.07. 8:00 0.2 l/m2 in 12 Std. -
So, 12.07. 2:00 0.2 l/m2 in 6 Std. -
Sa, 11.07. 20:00 9 l/m2 in 12 Std. -
Sa, 11.07. 14:00 4 l/m2 in 6 Std. -
Sa, 11.07. 8:00 13 l/m2 in 12 Std. -
Sa, 11.07. 2:00 4 l/m2 in 6 Std. -
Fr, 10.07. 20:00 8 l/m2 in 12 Std. -
Ortszeit Niederschlagsmenge Niederschlagsart
So, 12.07. 18:00 0.0 l/m2 in 1 Std. -
So, 12.07. 17:50 keine Meldung -
So, 12.07. 17:20 keine Meldung -
So, 12.07. 17:00 0.0 l/m2 in 1 Std. -
So, 12.07. 16:50 keine Meldung -
So, 12.07. 16:20 keine Meldung -
So, 12.07. 16:00 0.0 l/m2 in 1 Std. -
So, 12.07. 15:20 keine Meldung -
So, 12.07. 15:00 0.0 l/m2 in 1 Std. -
So, 12.07. 14:20 keine Meldung -
Ortszeit Stärke Spitze Richtung
km/h Bft. km/h Grad Sektor
So, 12.07. 14:00 11 2 - 70° O
So, 12.07. 8:00 7 2 - - -
So, 12.07. 2:00 4 1 - - -
Sa, 11.07. 20:00 4 1 - - -
Sa, 11.07. 14:00 11 2 - - -
Sa, 11.07. 8:00 11 2 - - -
Sa, 11.07. 2:00 7 2 - - -
Fr, 10.07. 20:00 29 5 68 240° SW
Ortszeit Stärke Spitze Richtung
km/h Bft. km/h Grad Sektor
So, 12.07. 18:00 25 4 - 70° O
So, 12.07. 17:50 26 4 - 70° O
So, 12.07. 17:20 20 4 - 80° O
So, 12.07. 17:00 22 4 - 80° O
So, 12.07. 16:50 20 4 - 80° O
So, 12.07. 16:20 17 3 - 90° O
So, 12.07. 16:00 18 3 - 90° O
So, 12.07. 15:20 13 3 - 80° O
So, 12.07. 15:00 11 2 - - -
So, 12.07. 14:20 7 2 - uml. uml.
Ortszeit Untergrenze Bedeckung Gattung
total tief tief mittel hoch
So, 12.07. 14:00 1800 m 1/8 1/8 Cu - -
So, 12.07. 8:00 240 m 7/8 6/8 St - -
So, 12.07. 2:00 330 m 7/8 5/8 - - -
Sa, 11.07. 20:00 840 m 8/8 5/8 Sc - -
Sa, 11.07. 14:00 450 m 8/8 7/8 St - -
Sa, 11.07. 8:00 210 m 8/8 7/8 St - -
Sa, 11.07. 2:00 210 m 8/8 3/8 - - -
Fr, 10.07. 20:00 1200 m 7/8 1/8 Sc Ac -
Ortszeit Bedeckungsgrad in Achtel und Wolkenuntergrenze
So, 12.07. 18:00 1(2100m)
So, 12.07. 17:50 1-2(2100m)
So, 12.07. 17:20 1-2(2100m)
So, 12.07. 17:00 2(2100m)
So, 12.07. 16:50 1-2(2100m)
So, 12.07. 16:20 1-2(2100m)
So, 12.07. 16:00 2(1800m)
So, 12.07. 15:20 1-2(1800m)
So, 12.07. 15:00 2(1800m)
So, 12.07. 14:20 1-2(1800m)
Ortszeit Luftdruck NN (hPa) Tendenz (hPa in 3 Std.)
So, 12.07. 14:00 1021 - 1,3
So, 12.07. 8:00 1025 + 0,8
So, 12.07. 2:00 1025 - 0,2
Sa, 11.07. 20:00 1023 + 0,9
Sa, 11.07. 14:00 1020 - 0,1
Sa, 11.07. 8:00 1018 + 1,8
Sa, 11.07. 2:00 1017 + 0,1
Fr, 10.07. 20:00 1015 + 3,0
Ortszeit Luftdruck NN (hPa) Tendenz (hPa in 3 Std.)
So, 12.07. 18:00 1020 - 0,3
So, 12.07. 17:50 1022 keine Meldung
So, 12.07. 17:20 1023 keine Meldung
So, 12.07. 17:00 1020 - 0,8
So, 12.07. 16:50 1022 keine Meldung
So, 12.07. 16:20 1023 keine Meldung
So, 12.07. 16:00 1020 - 1,2
So, 12.07. 15:20 1023 keine Meldung
So, 12.07. 15:00 1020 - 1,5
So, 12.07. 14:20 1023 keine Meldung
Ortszeit Schneehöhe (cm)
So, 12.07. 14:00 -
So, 12.07. 8:00 -
So, 12.07. 2:00 -
Sa, 11.07. 20:00 -
Sa, 11.07. 14:00 -
Sa, 11.07. 8:00 -
Sa, 11.07. 2:00 -
Fr, 10.07. 20:00 -
Ortszeit Schneehöhe (cm)
So, 12.07. 18:00 -
So, 12.07. 17:50 -
So, 12.07. 17:20 -
So, 12.07. 17:00 -
So, 12.07. 16:50 -
So, 12.07. 16:20 -
So, 12.07. 16:00 -
So, 12.07. 15:20 -
So, 12.07. 15:00 -
So, 12.07. 14:20 -
Link zu dieser Seite / Seite empfehlen

Das Wetter in ...